Time;durP1;ratioP1;P1;durP2;ratioP2;P2;SDS_P1;SDS_P2;PMS_P1;PMS_P2;Temp;Humidity;BMP_temperature;BMP_pressure;BME280_temperature;BME280_humidity;BME280_pressure;Samples;Min_cycle;Max_cycle;Signal;HPM_P1;HPM_P2
2021/12/30 00:01:07;;;;;;;0.70;0.47;;;13.30;99.90;;;;;;5009131;28;20460;-91
2021/12/30 00:03:36;;;;;;;0.73;0.70;;;13.40;99.90;;;;;;4997443;28;20476;-90
2021/12/30 00:06:04;;;;;;;1.97;0.67;;;13.40;99.90;;;;;;5009674;28;20474;-91
2021/12/30 00:08:31;;;;;;;1.43;0.63;;;13.40;99.90;;;;;;5008245;28;20454;-90
2021/12/30 00:10:58;;;;;;;1.20;1.10;;;13.40;99.90;;;;;;5023179;28;20566;-91
2021/12/30 00:13:25;;;;;;;1.43;1.30;;;13.40;99.90;;;;;;5021160;28;20479;-90
2021/12/30 00:15:55;;;;;;;0.60;0.50;;;13.30;99.90;;;;;;5019206;28;20463;-91
2021/12/30 00:18:22;;;;;;;3.00;1.23;;;13.30;99.90;;;;;;5006427;28;20476;-90
2021/12/30 00:20:50;;;;;;;0.93;0.80;;;13.30;99.90;;;;;;5020345;28;20966;-91
2021/12/30 00:23:17;;;;;;;0.90;0.80;;;13.20;99.90;;;;;;5020081;28;20461;-90
2021/12/30 00:25:44;;;;;;;1.20;0.80;;;13.30;99.90;;;;;;5020948;28;20565;-89
2021/12/30 00:28:14;;;;;;;1.83;1.00;;;13.30;99.90;;;;;;5025121;28;20606;-89
2021/12/30 00:30:41;;;;;;;1.17;0.87;;;13.40;99.90;;;;;;5025087;28;20441;-91
2021/12/30 00:33:08;;;;;;;0.93;0.87;;;13.40;99.90;;;;;;5014346;28;20447;-89
2021/12/30 00:35:36;;;;;;;1.93;1.00;;;13.40;99.90;;;;;;5003595;28;20458;-89
2021/12/30 00:38:11;;;;;;;2.50;0.90;;;13.50;99.90;;;;;;5004093;28;20449;-90
2021/12/30 00:40:38;;;;;;;0.70;0.60;;;13.60;99.90;;;;;;5003146;28;20434;-90
2021/12/30 00:43:06;;;;;;;2.13;0.80;;;13.60;99.90;;;;;;5011800;28;20457;-90
2021/12/30 00:45:35;;;;;;;2.37;1.10;;;13.50;99.90;;;;;;5021196;28;20481;-90
2021/12/30 00:48:03;;;;;;;1.37;0.90;;;13.60;99.90;;;;;;5020843;28;20469;-91
2021/12/30 00:50:31;;;;;;;2.33;1.10;;;13.60;99.90;;;;;;5021434;28;20468;-90
2021/12/30 00:52:59;;;;;;;1.53;0.80;;;13.60;99.90;;;;;;5018284;28;20596;-90
2021/12/30 00:55:28;;;;;;;1.33;0.90;;;13.60;99.90;;;;;;5017658;28;20460;-89
2021/12/30 00:57:55;;;;;;;1.97;1.00;;;13.60;99.90;;;;;;4999587;28;20438;-90
2021/12/30 01:00:23;;;;;;;3.13;1.00;;;13.50;99.90;;;;;;4999589;28;20445;-90
2021/12/30 01:02:50;;;;;;;1.73;0.77;;;13.40;99.90;;;;;;4979901;28;20465;-90
2021/12/30 01:05:17;;;;;;;1.20;0.80;;;13.40;99.90;;;;;;4980487;28;20494;-90
2021/12/30 01:07:44;;;;;;;0.90;0.90;;;13.40;99.90;;;;;;4980103;28;20447;-90
2021/12/30 01:10:14;;;;;;;3.07;0.80;;;13.40;99.90;;;;;;4994869;28;20454;-92
2021/12/30 01:12:43;;;;;;;1.20;0.70;;;13.30;99.90;;;;;;5032014;28;20892;-90
2021/12/30 01:15:17;;;;;;;1.20;0.80;;;13.40;99.90;;;;;;5038766;28;20469;-90
2021/12/30 01:17:50;;;;;;;1.80;1.63;;;13.40;99.90;;;;;;5007509;28;20945;-90
2021/12/30 01:20:19;;;;;;;1.30;1.17;;;13.40;99.90;;;;;;5000386;28;20502;-90
2021/12/30 01:22:48;;;;;;;0.83;0.60;;;13.30;99.90;;;;;;4999931;28;20461;-90
2021/12/30 01:25:16;;;;;;;2.50;1.00;;;13.30;99.90;;;;;;5000725;28;20509;-89
2021/12/30 01:27:45;;;;;;;1.87;1.00;;;13.40;99.90;;;;;;5032313;28;20454;-89
2021/12/30 01:30:16;;;;;;;3.50;1.37;;;13.40;99.90;;;;;;5019343;28;20452;-89
2021/12/30 01:32:43;;;;;;;1.60;1.00;;;13.40;99.90;;;;;;5030885;28;20437;-89
2021/12/30 01:35:14;;;;;;;1.73;1.00;;;13.40;99.90;;;;;;5040076;28;20552;-92
2021/12/30 01:37:41;;;;;;;2.20;1.20;;;13.30;99.90;;;;;;5032258;28;20942;-90
2021/12/30 01:40:13;;;;;;;1.63;1.00;;;13.40;99.90;;;;;;5038697;28;20418;-92
2021/12/30 01:42:41;;;;;;;2.70;0.97;;;13.40;99.90;;;;;;5028435;28;20458;-89
2021/12/30 01:45:11;;;;;;;1.50;1.00;;;13.30;99.90;;;;;;5022399;28;20520;-90
2021/12/30 01:47:46;;;;;;;2.97;0.80;;;13.30;99.90;;;;;;5000194;28;20958;-89
2021/12/30 01:50:13;;;;;;;1.67;1.00;;;13.40;99.90;;;;;;5000344;28;20951;-90
2021/12/30 01:52:40;;;;;;;2.33;1.10;;;13.40;99.90;;;;;;4999291;28;20449;-89
2021/12/30 01:55:08;;;;;;;1.33;0.80;;;13.40;99.90;;;;;;4998747;28;20478;-89
2021/12/30 01:57:35;;;;;;;1.00;0.80;;;13.40;99.90;;;;;;4997544;28;20473;-90
2021/12/30 02:00:02;;;;;;;2.40;1.10;;;13.30;99.90;;;;;;4997692;28;20427;-90
2021/12/30 02:02:31;;;;;;;1.90;1.17;;;13.20;99.90;;;;;;4998040;28;20457;-90
2021/12/30 02:04:58;;;;;;;4.33;1.30;;;13.30;99.90;;;;;;5004504;28;20566;-91
2021/12/30 02:07:25;;;;;;;2.10;1.27;;;13.30;99.90;;;;;;5017013;28;20458;-91
2021/12/30 02:09:53;;;;;;;6.27;2.30;;;13.20;99.90;;;;;;5017005;28;20453;-91
2021/12/30 02:12:20;;;;;;;1.93;1.07;;;13.10;99.90;;;;;;5017350;28;20535;-89
2021/12/30 02:14:48;;;;;;;3.33;1.10;;;13.00;99.90;;;;;;5012260;28;20467;-91
2021/12/30 02:17:15;;;;;;;2.37;1.00;;;13.00;99.90;;;;;;4997639;28;20455;-91
2021/12/30 02:19:43;;;;;;;3.40;1.30;;;13.10;99.90;;;;;;4996903;28;20979;-90
2021/12/30 02:22:11;;;;;;;2.20;1.23;;;13.00;99.90;;;;;;4996706;28;20481;-91
2021/12/30 02:24:45;;;;;;;1.13;0.80;;;13.10;99.90;;;;;;4996659;28;20548;-91
2021/12/30 02:27:12;;;;;;;1.30;0.90;;;13.10;99.90;;;;;;5000030;28;20450;-90
2021/12/30 02:29:39;;;;;;;0.93;0.73;;;13.10;99.90;;;;;;5018841;28;20450;-93
2021/12/30 02:32:06;;;;;;;1.23;0.83;;;13.10;99.90;;;;;;5001976;28;20450;-91
2021/12/30 02:34:36;;;;;;;1.60;1.30;;;13.20;99.90;;;;;;5004864;28;21004;-91
2021/12/30 02:37:03;;;;;;;4.60;1.10;;;13.30;99.90;;;;;;5000021;28;20455;-90
2021/12/30 02:39:32;;;;;;;2.33;0.90;;;13.30;99.90;;;;;;4998584;28;20457;-91
2021/12/30 02:41:59;;;;;;;1.97;1.07;;;13.40;99.90;;;;;;4999084;28;20441;-90
2021/12/30 02:44:27;;;;;;;1.93;0.90;;;13.40;99.90;;;;;;5015859;28;20523;-90
2021/12/30 02:46:54;;;;;;;2.10;1.00;;;13.40;99.90;;;;;;5016040;28;20450;-90
2021/12/30 02:49:22;;;;;;;2.07;1.23;;;13.40;99.90;;;;;;4987430;28;20464;-91
2021/12/30 02:51:49;;;;;;;3.77;1.30;;;13.40;99.90;;;;;;4997663;28;20491;-90
2021/12/30 02:54:16;;;;;;;2.40;0.90;;;13.40;99.90;;;;;;4997065;28;20477;-91
2021/12/30 02:56:47;;;;;;;1.40;1.10;;;13.30;99.90;;;;;;5002433;28;20447;-90
2021/12/30 02:59:14;;;;;;;1.77;1.00;;;13.30;99.90;;;;;;5007925;28;20442;-91
2021/12/30 03:01:41;;;;;;;2.13;0.93;;;13.30;99.90;;;;;;5016644;28;20455;-90
2021/12/30 03:04:10;;;;;;;2.10;1.20;;;13.20;99.90;;;;;;5015465;28;20461;-90
2021/12/30 03:06:37;;;;;;;1.97;1.20;;;13.30;99.90;;;;;;4999047;28;20507;-90
2021/12/30 03:09:05;;;;;;;2.60;1.23;;;13.40;99.90;;;;;;4997713;28;20591;-91
2021/12/30 03:11:32;;;;;;;1.50;0.90;;;13.50;99.90;;;;;;4996892;28;20443;-91
2021/12/30 03:14:01;;;;;;;2.10;1.30;;;13.40;99.90;;;;;;4996386;28;20474;-90
2021/12/30 03:16:32;;;;;;;0.90;0.70;;;13.30;99.90;;;;;;4995524;28;20454;-90
2021/12/30 03:18:59;;;;;;;2.07;1.30;;;13.40;99.90;;;;;;4996202;28;20583;-90
2021/12/30 03:21:27;;;;;;;2.13;1.00;;;13.40;99.90;;;;;;4995239;28;20522;-90
2021/12/30 03:23:55;;;;;;;2.07;1.13;;;13.50;99.90;;;;;;4995541;28;20475;-91
2021/12/30 03:26:39;;;;;;;2.90;0.97;;;13.60;99.90;;;;;;4994643;28;21022;-91
2021/12/30 03:29:08;;;;;;;1.97;0.90;;;13.60;99.90;;;;;;5010113;28;20445;-91
2021/12/30 03:31:34;;;;;;;2.13;1.00;;;13.60;99.90;;;;;;5025295;28;20443;-91
2021/12/30 03:34:01;;;;;;;1.50;0.90;;;13.70;99.90;;;;;;5025377;23;20490;-85
2021/12/30 03:36:28;;;;;;;1.33;1.00;;;13.70;99.90;;;;;;4997690;28;20441;-84
2021/12/30 03:38:56;;;;;;;1.83;1.00;;;13.80;99.90;;;;;;5015800;28;20453;-85
2021/12/30 03:41:26;;;;;;;2.50;0.97;;;13.80;99.90;;;;;;5025606;28;20450;-85
2021/12/30 03:43:52;;;;;;;1.93;0.90;;;13.80;99.90;;;;;;5002128;28;20467;-85
2021/12/30 03:46:22;;;;;;;2.33;1.00;;;13.80;99.90;;;;;;4999201;28;20487;-86
2021/12/30 03:48:48;;;;;;;2.83;1.10;;;13.80;99.90;;;;;;4999543;28;20462;-85
2021/12/30 03:51:21;;;;;;;0.87;0.67;;;13.90;99.90;;;;;;4999331;28;20493;-86
2021/12/30 03:53:49;;;;;;;2.07;1.00;;;13.90;99.90;;;;;;4998378;28;20477;-85
2021/12/30 03:56:17;;;;;;;1.50;1.17;;;13.90;99.90;;;;;;4997828;28;20836;-85
2021/12/30 03:58:45;;;;;;;3.10;1.30;;;13.90;99.90;;;;;;4998539;28;20454;-85
2021/12/30 04:01:15;;;;;;;3.57;1.20;;;13.80;99.90;;;;;;4998128;28;20490;-85
2021/12/30 04:03:43;;;;;;;2.70;1.20;;;13.60;99.90;;;;;;4998424;28;21002;-86
2021/12/30 04:06:11;;;;;;;1.80;1.20;;;13.60;99.90;;;;;;4998165;28;20485;-85
2021/12/30 04:08:38;;;;;;;2.93;1.50;;;13.40;99.90;;;;;;4997262;28;20932;-85
2021/12/30 04:11:05;;;;;;;5.27;1.37;;;13.40;99.90;;;;;;4998081;28;20454;-85
2021/12/30 04:13:32;;;;;;;3.70;1.27;;;13.50;99.90;;;;;;5002951;28;20473;-85
2021/12/30 04:15:59;;;;;;;3.17;1.10;;;13.50;99.90;;;;;;4997762;28;20503;-85
2021/12/30 04:18:26;;;;;;;2.93;1.50;;;13.50;99.90;;;;;;4997246;28;20512;-85
2021/12/30 04:20:55;;;;;;;2.07;1.07;;;13.40;99.90;;;;;;5006029;28;20442;-85
2021/12/30 04:23:22;;;;;;;1.77;1.00;;;13.30;99.90;;;;;;5000232;28;20448;-84
2021/12/30 04:25:48;;;;;;;1.57;1.30;;;13.30;99.90;;;;;;5001319;28;20556;-85
2021/12/30 04:28:17;;;;;;;1.27;1.17;;;13.40;99.90;;;;;;5006134;28;20451;-84
2021/12/30 04:30:43;;;;;;;1.30;1.00;;;13.40;99.90;;;;;;5017912;28;20443;-84
2021/12/30 04:33:10;;;;;;;4.73;1.57;;;13.40;99.90;;;;;;5002063;28;20458;-85
2021/12/30 04:35:37;;;;;;;6.53;1.33;;;13.30;99.90;;;;;;5002189;28;20462;-85
2021/12/30 04:38:05;;;;;;;1.73;1.00;;;13.30;99.90;;;;;;5012028;28;20443;-84
2021/12/30 04:40:32;;;;;;;2.93;1.00;;;13.30;99.90;;;;;;5018744;28;20481;-84
2021/12/30 04:42:58;;;;;;;1.27;0.80;;;13.30;99.90;;;;;;5010596;28;20455;-84
2021/12/30 04:45:27;;;;;;;2.97;0.90;;;13.20;99.90;;;;;;5010845;28;20474;-85
2021/12/30 04:47:54;;;;;;;1.60;1.00;;;13.30;99.90;;;;;;5009494;28;20462;-84
2021/12/30 04:50:21;;;;;;;2.67;1.50;;;13.30;99.90;;;;;;5008425;28;20457;-84
2021/12/30 04:52:48;;;;;;;1.80;1.27;;;13.20;99.90;;;;;;5015153;28;20503;-83
2021/12/30 04:55:16;;;;;;;2.30;1.37;;;13.10;99.90;;;;;;5012014;28;20465;-84
2021/12/30 04:57:43;;;;;;;1.70;0.80;;;13.20;99.90;;;;;;5007311;28;20457;-84
2021/12/30 05:00:12;;;;;;;1.20;1.00;;;13.20;99.90;;;;;;5004087;28;20486;-84
2021/12/30 05:03:08;;;;;;;2.30;1.83;;;13.20;99.90;;;;;;5008404;28;20439;-84
2021/12/30 05:05:32;;;;;;;1.30;1.17;;;13.20;99.90;;;;;;5018253;28;20510;-83
2021/12/30 05:07:59;;;;;;;2.70;1.13;;;13.20;99.90;;;;;;5006368;28;20469;-84
2021/12/30 05:10:27;;;;;;;3.10;1.53;;;13.30;99.90;;;;;;5003170;28;20454;-83
2021/12/30 05:12:54;;;;;;;3.23;1.47;;;13.30;99.90;;;;;;5000606;28;20477;-85
2021/12/30 05:15:21;;;;;;;1.93;1.00;;;13.30;99.90;;;;;;5000559;28;20462;-84
2021/12/30 05:17:48;;;;;;;2.13;1.27;;;13.40;99.90;;;;;;4999807;28;20443;-85
2021/12/30 05:20:15;;;;;;;1.57;1.47;;;13.40;99.90;;;;;;5001338;28;20447;-85
2021/12/30 05:22:43;;;;;;;1.20;1.03;;;13.40;99.90;;;;;;5002910;28;20959;-85
2021/12/30 05:25:10;;;;;;;1.80;1.10;;;13.40;99.90;;;;;;5004298;28;20474;-85
2021/12/30 05:27:38;;;;;;;2.20;1.00;;;13.30;99.90;;;;;;5008253;28;20940;-85
2021/12/30 05:30:07;;;;;;;1.53;1.10;;;13.30;99.90;;;;;;5009731;28;20803;-84
2021/12/30 05:32:34;;;;;;;1.60;0.90;;;13.30;99.90;;;;;;5005518;28;20447;-85
2021/12/30 05:35:01;;;;;;;1.37;0.90;;;13.30;99.90;;;;;;5012740;28;20484;-86
2021/12/30 05:37:28;;;;;;;4.17;1.00;;;13.30;99.90;;;;;;4996982;28;20454;-86
2021/12/30 05:39:55;;;;;;;4.37;1.00;;;13.30;99.90;;;;;;4996293;28;20869;-86
2021/12/30 05:42:22;;;;;;;1.30;0.90;;;13.30;99.90;;;;;;4997049;28;20453;-86
2021/12/30 05:44:51;;;;;;;1.10;0.70;;;13.30;99.90;;;;;;5001506;28;20478;-85
2021/12/30 05:47:18;;;;;;;1.20;1.10;;;13.20;99.90;;;;;;4998580;28;20485;-86
2021/12/30 05:49:44;;;;;;;2.80;0.80;;;13.20;99.90;;;;;;4995823;28;20480;-85
2021/12/30 05:52:11;;;;;;;1.87;1.00;;;13.30;99.90;;;;;;4995910;28;20516;-85
2021/12/30 05:54:38;;;;;;;2.20;0.90;;;13.20;99.90;;;;;;4995973;28;20478;-86
2021/12/30 05:57:05;;;;;;;1.10;1.00;;;13.20;99.90;;;;;;5000743;28;20453;-85
2021/12/30 05:59:32;;;;;;;1.33;0.90;;;13.30;99.90;;;;;;4997244;28;20451;-86
2021/12/30 06:02:00;;;;;;;1.03;0.93;;;13.30;99.90;;;;;;4999333;28;20504;-85
2021/12/30 06:04:27;;;;;;;1.93;1.00;;;13.30;99.90;;;;;;5002363;28;20471;-85
2021/12/30 06:06:54;;;;;;;1.60;0.90;;;13.30;99.90;;;;;;4998447;28;20483;-85
2021/12/30 06:09:22;;;;;;;4.73;0.73;;;13.30;99.90;;;;;;4996565;28;21074;-85
2021/12/30 06:11:48;;;;;;;1.07;0.80;;;13.30;99.90;;;;;;4996972;28;20463;-84
2021/12/30 06:14:15;;;;;;;0.93;0.70;;;13.30;99.90;;;;;;4997329;28;20474;-83
2021/12/30 06:16:42;;;;;;;0.93;0.67;;;13.30;99.90;;;;;;4996455;28;20450;-85
2021/12/30 06:19:10;;;;;;;0.80;0.80;;;13.30;99.90;;;;;;4995434;28;20461;-84
2021/12/30 06:21:37;;;;;;;1.87;0.80;;;13.30;99.90;;;;;;4995436;28;20534;-84
2021/12/30 06:24:04;;;;;;;1.40;0.90;;;13.30;99.90;;;;;;4996080;28;20471;-84
2021/12/30 06:26:31;;;;;;;1.60;1.03;;;13.20;99.90;;;;;;5001045;28;20489;-85
2021/12/30 06:28:57;;;;;;;1.20;0.97;;;13.20;99.90;;;;;;5005065;28;20474;-83
2021/12/30 06:31:24;;;;;;;2.00;1.00;;;13.30;99.90;;;;;;5014271;28;20453;-84
2021/12/30 06:33:51;;;;;;;1.47;0.83;;;13.30;99.90;;;;;;5010523;28;20501;-85
2021/12/30 06:36:21;;;;;;;2.13;1.10;;;13.30;99.90;;;;;;5003793;28;20487;-84
2021/12/30 06:38:48;;;;;;;2.57;0.80;;;13.20;99.90;;;;;;5005642;28;20449;-84
2021/12/30 06:41:15;;;;;;;1.93;0.97;;;13.20;99.90;;;;;;5007839;28;20511;-85
2021/12/30 06:43:42;;;;;;;2.30;1.33;;;13.20;99.90;;;;;;5002175;28;20509;-84
2021/12/30 06:46:10;;;;;;;1.47;0.80;;;13.20;99.90;;;;;;4998712;28;20495;-86
2021/12/30 06:48:37;;;;;;;1.80;1.20;;;13.20;99.90;;;;;;4998488;28;20458;-84
2021/12/30 06:51:05;;;;;;;2.50;1.40;;;13.20;99.90;;;;;;4997486;28;20460;-84
2021/12/30 06:53:34;;;;;;;1.57;1.37;;;13.10;99.90;;;;;;4999747;28;20527;-84
2021/12/30 06:56:00;;;;;;;2.40;1.37;;;13.20;99.90;;;;;;5010536;28;20460;-84
2021/12/30 06:58:27;;;;;;;1.40;1.30;;;13.20;99.90;;;;;;5007783;28;20963;-85
2021/12/30 07:00:54;;;;;;;1.73;1.20;;;13.10;99.90;;;;;;4997497;28;20453;-86
2021/12/30 07:03:21;;;;;;;3.20;1.60;;;13.10;99.90;;;;;;5011827;28;20438;-85
2021/12/30 07:05:47;;;;;;;6.70;1.60;;;13.00;99.90;;;;;;5001699;28;20453;-86
2021/12/30 07:08:14;;;;;;;1.43;1.33;;;12.90;99.90;;;;;;4997669;28;20474;-85
2021/12/30 07:10:42;;;;;;;2.23;1.30;;;12.90;99.90;;;;;;5001690;28;20455;-85
2021/12/30 07:13:09;;;;;;;1.93;1.30;;;12.90;99.90;;;;;;4999121;28;20819;-86
2021/12/30 07:15:36;;;;;;;1.77;1.40;;;13.00;99.90;;;;;;5007896;28;20442;-82
2021/12/30 07:18:03;;;;;;;3.90;1.63;;;12.90;99.90;;;;;;5013356;28;20477;-85
2021/12/30 07:20:29;;;;;;;3.20;1.30;;;13.00;99.90;;;;;;5013081;28;20430;-84
2021/12/30 07:22:56;;;;;;;2.00;1.20;;;12.90;99.90;;;;;;5010225;28;20513;-84
2021/12/30 07:25:23;;;;;;;1.10;0.80;;;13.00;99.90;;;;;;5003650;28;20470;-83
2021/12/30 07:27:53;;;;;;;0.70;0.60;;;13.00;99.90;;;;;;5000814;28;21833;-85
2021/12/30 07:30:21;;;;;;;2.10;1.07;;;13.00;99.90;;;;;;5000231;28;20450;-85
2021/12/30 07:32:48;;;;;;;1.90;0.90;;;13.00;99.90;;;;;;4999386;28;20485;-85
2021/12/30 07:35:17;;;;;;;2.63;1.20;;;13.00;99.90;;;;;;5000099;28;20486;-84
2021/12/30 07:37:44;;;;;;;3.03;1.07;;;13.00;99.90;;;;;;4999832;28;20530;-83
2021/12/30 07:40:11;;;;;;;2.10;0.90;;;13.00;99.90;;;;;;4998462;28;20991;-83
2021/12/30 07:42:38;;;;;;;1.93;1.23;;;13.10;99.90;;;;;;4990833;28;20464;-84
2021/12/30 07:45:09;;;;;;;1.73;0.80;;;13.10;99.90;;;;;;4994368;28;20486;-84
2021/12/30 07:47:36;;;;;;;1.10;0.80;;;13.10;99.90;;;;;;4992235;28;20491;-84
2021/12/30 07:50:02;;;;;;;1.23;0.93;;;13.10;99.90;;;;;;4992931;28;20454;-86
2021/12/30 07:52:29;;;;;;;4.07;0.90;;;13.10;99.90;;;;;;4993994;28;20443;-83
2021/12/30 07:54:56;;;;;;;1.73;0.90;;;13.10;99.90;;;;;;4993967;28;20503;-84
2021/12/30 07:57:22;;;;;;;1.83;0.93;;;13.20;99.90;;;;;;4996372;28;20454;-84
2021/12/30 07:59:51;;;;;;;1.30;1.20;;;13.20;99.90;;;;;;4995459;28;20457;-84
2021/12/30 08:02:19;;;;;;;1.70;1.13;;;13.20;99.90;;;;;;4994233;28;20449;-86
2021/12/30 08:04:47;;;;;;;1.77;0.80;;;13.20;99.90;;;;;;4994934;28;20474;-84
2021/12/30 08:07:15;;;;;;;4.80;1.30;;;13.30;99.90;;;;;;4993082;28;22411;-86
2021/12/30 08:09:41;;;;;;;1.30;0.80;;;13.30;99.90;;;;;;4993552;28;20494;-87
2021/12/30 08:12:09;;;;;;;0.83;0.80;;;13.30;99.90;;;;;;5006290;28;20455;-86
2021/12/30 08:14:36;;;;;;;1.83;0.80;;;13.30;99.90;;;;;;4993708;28;20524;-86
2021/12/30 08:17:03;;;;;;;1.70;0.80;;;13.40;99.90;;;;;;4990841;28;20820;-86
2021/12/30 08:19:31;;;;;;;1.30;0.83;;;13.40;99.90;;;;;;4993206;28;20455;-86
2021/12/30 08:21:57;;;;;;;1.57;0.77;;;13.40;99.90;;;;;;4996224;28;20450;-86
2021/12/30 08:24:24;;;;;;;2.37;1.00;;;13.40;99.90;;;;;;4995795;28;20979;-86
2021/12/30 08:26:51;;;;;;;1.43;0.80;;;13.40;99.90;;;;;;5002287;28;20474;-87
2021/12/30 08:29:18;;;;;;;2.63;0.80;;;13.40;99.90;;;;;;5006005;28;20454;-87
2021/12/30 08:31:44;;;;;;;1.03;0.77;;;13.40;99.90;;;;;;5010171;28;20447;-85
2021/12/30 08:34:11;;;;;;;1.73;0.80;;;13.40;99.90;;;;;;5016673;28;20477;-85
2021/12/30 08:36:39;;;;;;;2.03;1.30;;;13.50;99.90;;;;;;5017940;28;20535;-85
2021/12/30 08:39:06;;;;;;;1.87;1.00;;;13.50;99.90;;;;;;5008668;28;20497;-85
2021/12/30 08:41:33;;;;;;;2.50;0.80;;;13.60;99.90;;;;;;5000028;28;20450;-84
2021/12/30 08:44:00;;;;;;;1.30;0.90;;;13.60;99.90;;;;;;4999678;28;20470;-84
2021/12/30 08:46:27;;;;;;;3.73;1.50;;;13.70;99.90;;;;;;5007811;28;20478;-85
2021/12/30 08:48:53;;;;;;;1.20;0.70;;;13.70;99.90;;;;;;5006705;28;20458;-84
2021/12/30 08:51:20;;;;;;;1.00;0.73;;;13.80;99.90;;;;;;5005290;28;20439;-83
2021/12/30 08:53:48;;;;;;;1.57;0.70;;;13.80;99.90;;;;;;5003215;28;21006;-86
2021/12/30 08:56:17;;;;;;;0.80;0.70;;;13.90;99.90;;;;;;5003985;28;20896;-86
2021/12/30 08:58:44;;;;;;;0.80;0.70;;;13.90;99.90;;;;;;5001815;28;20902;-86
2021/12/30 09:01:10;;;;;;;0.83;0.70;;;13.90;99.90;;;;;;4996739;28;20447;-86
2021/12/30 09:03:37;;;;;;;0.63;0.60;;;14.00;99.90;;;;;;4996368;28;21368;-86
2021/12/30 09:06:05;;;;;;;4.10;0.80;;;14.20;99.90;;;;;;4996095;28;20474;-86
2021/12/30 09:08:32;;;;;;;0.70;0.50;;;14.50;99.90;;;;;;4994760;28;20527;-86
2021/12/30 09:11:01;;;;;;;1.53;0.60;;;14.60;99.90;;;;;;4995840;28;20928;-83
2021/12/30 09:13:27;;;;;;;2.30;0.70;;;14.70;99.90;;;;;;4996255;28;20456;-85
2021/12/30 09:15:55;;;;;;;1.07;0.83;;;14.90;99.90;;;;;;4999094;28;20451;-86
2021/12/30 09:18:23;;;;;;;1.77;0.57;;;15.00;99.90;;;;;;5009627;28;20440;-84
2021/12/30 09:20:51;;;;;;;1.00;0.80;;;15.20;99.90;;;;;;4999487;28;20910;-85
2021/12/30 09:23:17;;;;;;;1.63;0.70;;;15.40;99.90;;;;;;4995099;28;20452;-86
2021/12/30 09:25:44;;;;;;;0.70;0.63;;;15.50;99.90;;;;;;4996365;28;20948;-87
2021/12/30 09:28:17;;;;;;;0.73;0.60;;;15.60;99.90;;;;;;4998370;28;20478;-88
2021/12/30 09:31:23;;;;;;;1.00;0.60;;;15.70;99.90;;;;;;4996747;28;20447;-89
2021/12/30 09:38:12;;;;;;;0.90;0.70;;;15.90;99.90;;;;;;4878743;29;20476;-88
2021/12/30 09:58:53;;;;;;;1.00;0.50;;;15.90;99.90;;;;;;4989509;28;20450;-89
2021/12/30 10:01:55;;;;;;;1.10;0.67;;;15.90;99.90;;;;;;4957305;28;20569;-88
2021/12/30 10:04:30;;;;;;;0.90;0.70;;;16.00;99.90;;;;;;5001080;28;20498;-85
2021/12/30 10:06:58;;;;;;;0.63;0.50;;;16.20;99.90;;;;;;4997123;28;20552;-85
2021/12/30 10:09:39;;;;;;;1.33;0.80;;;16.40;99.90;;;;;;4996056;28;20948;-84
2021/12/30 10:12:06;;;;;;;1.33;0.80;;;16.70;99.90;;;;;;4994336;28;20494;-86
2021/12/30 10:14:36;;;;;;;1.27;0.50;;;16.80;99.90;;;;;;4999075;28;20527;-86
2021/12/30 10:17:18;;;;;;;1.10;0.80;;;17.10;99.90;;;;;;4994939;28;20449;-86
2021/12/30 10:19:45;;;;;;;0.67;0.53;;;17.50;99.90;;;;;;4994078;28;20442;-86
2021/12/30 10:22:14;;;;;;;0.93;0.73;;;17.50;99.90;;;;;;4994609;28;20447;-84
2021/12/30 10:24:41;;;;;;;2.73;0.97;;;17.60;99.90;;;;;;5007282;28;20460;-85
2021/12/30 10:27:08;;;;;;;0.90;0.60;;;17.90;99.90;;;;;;5015227;28;20455;-85
2021/12/30 10:29:42;;;;;;;1.90;0.90;;;18.30;99.90;;;;;;4999078;28;20507;-86
2021/12/30 10:32:17;;;;;;;0.93;0.70;;;19.10;99.90;;;;;;5001111;28;20454;-85
2021/12/30 10:35:08;;;;;;;0.90;0.50;;;19.90;99.90;;;;;;5014913;28;20452;-86
2021/12/30 10:37:37;;;;;;;1.90;0.80;;;20.10;99.90;;;;;;5011088;28;20570;-84
2021/12/30 10:40:05;;;;;;;1.10;0.80;;;19.90;99.90;;;;;;5009408;28;20998;-84
2021/12/30 10:42:33;;;;;;;1.43;0.70;;;19.40;99.90;;;;;;4999581;28;20449;-85
2021/12/30 10:48:31;;;;;;;1.00;0.90;;;19.10;99.90;;;;;;4942256;28;20448;-87
2021/12/30 10:51:13;;;;;;;0.83;0.50;;;18.70;99.90;;;;;;5014179;28;20456;-89
2021/12/30 10:53:40;;;;;;;1.00;0.90;;;18.40;99.90;;;;;;5035763;28;20434;-88
2021/12/30 10:56:25;;;;;;;0.93;0.80;;;18.10;99.90;;;;;;5019532;28;20462;-89
2021/12/30 10:58:54;;;;;;;0.70;0.50;;;17.90;99.90;;;;;;5014602;28;20495;-88
2021/12/30 11:01:24;;;;;;;0.93;0.83;;;17.80;99.90;;;;;;5014974;28;20459;-88
2021/12/30 11:04:00;;;;;;;1.57;0.70;;;17.80;99.90;;;;;;5027697;28;20482;-89
2021/12/30 11:06:27;;;;;;;1.33;0.90;;;18.00;99.90;;;;;;5029238;28;20478;-88
2021/12/30 11:09:22;;;;;;;0.87;0.57;;;18.20;99.90;;;;;;5037413;28;20448;-89
2021/12/30 11:11:51;;;;;;;1.27;0.90;;;18.80;99.90;;;;;;5025121;28;20456;-88
2021/12/30 11:14:21;;;;;;;0.73;0.70;;;19.20;99.90;;;;;;5024692;28;20468;-89
2021/12/30 11:17:12;;;;;;;0.87;0.60;;;20.30;99.90;;;;;;5035088;28;20462;-88
2021/12/30 11:19:43;;;;;;;1.20;0.83;;;20.90;99.90;;;;;;5019808;28;20965;-88
2021/12/30 11:22:15;;;;;;;1.73;0.90;;;21.60;99.90;;;;;;5018046;28;20452;-88
2021/12/30 11:24:44;;;;;;;1.30;0.87;;;22.60;99.90;;;;;;5017344;28;20454;-88
2021/12/30 11:27:16;;;;;;;1.30;0.83;;;23.20;99.90;;;;;;5018525;28;20432;-89
2021/12/30 11:30:06;;;;;;;0.83;0.67;;;22.40;99.90;;;;;;5018533;28;21175;-88
2021/12/30 11:32:56;;;;;;;0.90;0.73;;;22.00;99.90;;;;;;5016790;28;20553;-88
2021/12/30 11:35:47;;;;;;;1.07;0.97;;;21.30;99.90;;;;;;5016582;28;20465;-89
2021/12/30 11:38:14;;;;;;;1.00;0.80;;;20.50;99.90;;;;;;4993729;28;20482;-87
2021/12/30 11:40:41;;;;;;;0.70;0.50;;;20.00;99.90;;;;;;5032820;28;20452;-89
2021/12/30 11:43:11;;;;;;;0.90;0.77;;;19.80;99.90;;;;;;5035737;28;20456;-87
2021/12/30 11:45:39;;;;;;;1.20;0.87;;;19.60;99.90;;;;;;5032689;28;20480;-87
2021/12/30 11:48:22;;;;;;;1.50;0.97;;;19.80;99.90;;;;;;5021448;28;20456;-86
2021/12/30 11:51:02;;;;;;;1.00;0.80;;;20.10;99.90;;;;;;5001008;28;20559;-87
2021/12/30 11:53:29;;;;;;;0.97;0.60;;;20.20;99.90;;;;;;5011476;28;20462;-88
2021/12/30 11:56:01;;;;;;;1.57;0.80;;;20.00;99.90;;;;;;5000394;28;20470;-87
2021/12/30 11:58:53;;;;;;;0.70;0.50;;;19.70;99.90;;;;;;4996832;28;20493;-88
2021/12/30 12:01:34;;;;;;;0.90;0.73;;;19.40;99.90;;;;;;5004543;28;20466;-88
2021/12/30 12:04:05;;;;;;;1.07;0.40;;;19.20;99.90;;;;;;5020766;28;20445;-87
2021/12/30 12:06:36;;;;;;;2.17;0.67;;;18.80;99.90;;;;;;5030315;28;20445;-88
2021/12/30 12:09:07;;;;;;;2.20;0.77;;;18.50;99.90;;;;;;5040816;28;20439;-88
2021/12/30 12:11:46;;;;;;;3.63;0.70;;;18.30;99.90;;;;;;5023179;28;20506;-88
2021/12/30 12:14:16;;;;;;;0.90;0.67;;;18.10;99.90;;;;;;5022503;28;20426;-88
2021/12/30 12:16:55;;;;;;;0.70;0.50;;;18.00;99.90;;;;;;5021418;28;20845;-88
2021/12/30 12:19:32;;;;;;;0.70;0.40;;;18.10;99.90;;;;;;5021504;28;20519;-88
2021/12/30 12:22:02;;;;;;;1.47;0.73;;;18.90;99.90;;;;;;5021698;28;20448;-88
2021/12/30 12:24:35;;;;;;;1.70;0.83;;;19.30;99.90;;;;;;5020952;28;20454;-88
2021/12/30 12:27:15;;;;;;;1.50;1.00;;;19.40;99.90;;;;;;5019945;28;20438;-88
2021/12/30 12:30:17;;;;;;;2.57;1.70;;;19.20;99.90;;;;;;5020081;28;20457;-89
2021/12/30 12:33:38;;;;;;;23.07;11.67;;;19.10;99.90;;;;;;5019964;28;20494;-89
2021/12/30 12:36:12;;;;;;;3.23;1.13;;;19.10;99.90;;;;;;5015144;28;20494;-82
2021/12/30 12:38:42;;;;;;;3.27;1.70;;;18.80;99.90;;;;;;5023801;28;20492;-85
2021/12/30 12:41:18;;;;;;;0.80;0.60;;;18.60;99.90;;;;;;5022677;28;20459;-78
2021/12/30 12:43:45;;;;;;;1.57;0.60;;;18.30;99.90;;;;;;5021174;28;20450;-78
2021/12/30 12:46:12;;;;;;;4.63;2.53;;;18.00;99.90;;;;;;5026735;28;20478;-78
2021/12/30 12:48:41;;;;;;;1.23;0.80;;;17.90;99.90;;;;;;5024645;28;20514;-79
2021/12/30 12:51:23;;;;;;;0.70;0.50;;;17.70;99.90;;;;;;5024416;28;20447;-79
2021/12/30 12:53:56;;;;;;;1.00;0.67;;;17.50;99.90;;;;;;5002084;28;20491;-78
2021/12/30 12:56:29;;;;;;;1.00;0.87;;;17.40;99.90;;;;;;5004486;28;20476;-78
2021/12/30 12:58:59;;;;;;;1.13;0.70;;;17.40;99.90;;;;;;5023009;28;20489;-79
2021/12/30 13:01:27;;;;;;;1.80;0.90;;;17.40;99.90;;;;;;5022691;28;20446;-78
2021/12/30 13:03:57;;;;;;;1.10;0.70;;;17.40;99.90;;;;;;5020606;28;20447;-78
2021/12/30 13:06:26;;;;;;;0.97;0.63;;;17.40;99.90;;;;;;5026050;28;20480;-79
2021/12/30 13:08:55;;;;;;;0.83;0.63;;;17.40;99.90;;;;;;5022497;28;20854;-79
2021/12/30 13:11:31;;;;;;;2.50;1.00;;;17.30;99.90;;;;;;5021149;28;20463;-78
2021/12/30 13:13:59;;;;;;;1.17;0.80;;;17.30;99.90;;;;;;5002209;28;20456;-78
2021/12/30 13:16:30;;;;;;;1.27;0.97;;;17.30;99.90;;;;;;5002896;28;20993;-78
2021/12/30 13:19:07;;;;;;;0.90;0.70;;;17.30;99.90;;;;;;5023628;28;20482;-78
2021/12/30 13:21:43;;;;;;;1.10;0.90;;;17.30;99.90;;;;;;5024893;28;20454;-77
2021/12/30 13:28:14;;;;;;;1.30;0.80;;;17.20;99.90;;;;;;4959251;28;20436;-87
2021/12/30 13:30:41;;;;;;;1.60;0.80;;;17.20;99.90;;;;;;4958022;28;20440;-87